Time;durP1;ratioP1;P1;durP2;ratioP2;P2;SDS_P1;SDS_P2;PMS_P1;PMS_P2;Temp;Humidity;BMP_temperature;BMP_pressure;BME280_temperature;BME280_humidity;BME280_pressure;Samples;Min_cycle;Max_cycle;Signal;HPM_P1;HPM_P2
2021/12/22 00:02:07;;;;;;;21.03;18.93;;;0.90;98.90;;;;;;10481581;28;20229;-77
2021/12/22 00:07:09;;;;;;;21.33;19.27;;;0.80;98.60;;;;;;10498752;28;20212;-78
2021/12/22 00:12:13;;;;;;;21.40;19.30;;;0.80;98.70;;;;;;10497995;28;20287;-76
2021/12/22 00:17:15;;;;;;;20.57;18.57;;;0.70;99.30;;;;;;10497364;28;20299;-77
2021/12/22 00:22:17;;;;;;;22.30;20.30;;;0.70;99.10;;;;;;10498745;28;20267;-77
2021/12/22 00:27:20;;;;;;;21.20;19.13;;;0.70;99.10;;;;;;10498085;28;20200;-79
2021/12/22 00:32:24;;;;;;;20.13;18.20;;;0.70;99.00;;;;;;10479758;28;20204;-77
2021/12/22 00:37:29;;;;;;;20.47;18.27;;;0.70;98.30;;;;;;10479832;28;20215;-77
2021/12/22 00:42:32;;;;;;;21.90;19.73;;;0.60;99.10;;;;;;10497460;28;20193;-77
2021/12/22 00:47:35;;;;;;;21.87;19.77;;;0.60;99.00;;;;;;10496962;28;20210;-77
2021/12/22 00:52:37;;;;;;;22.30;20.10;;;0.60;98.80;;;;;;10497230;28;20223;-77
2021/12/22 00:57:41;;;;;;;21.20;19.20;;;0.50;99.30;;;;;;10495362;28;20587;-77
2021/12/22 01:02:44;;;;;;;19.63;17.80;;;0.50;99.20;;;;;;10496813;28;20192;-77
2021/12/22 01:07:49;;;;;;;21.60;19.47;;;0.60;99.30;;;;;;10477568;28;20230;-77
2021/12/22 01:12:55;;;;;;;21.93;19.70;;;0.60;99.20;;;;;;10498923;28;20634;-76
2021/12/22 01:18:01;;;;;;;21.00;18.90;;;0.60;98.80;;;;;;10495519;28;20651;-77
2021/12/22 01:23:05;;;;;;;23.00;20.90;;;0.60;98.40;;;;;;10494848;28;20191;-77
2021/12/22 01:28:10;;;;;;;22.77;20.53;;;0.50;98.60;;;;;;10477603;28;20290;-76
2021/12/22 01:33:13;;;;;;;22.20;20.03;;;0.40;98.70;;;;;;10495678;28;20287;-77
2021/12/22 01:38:15;;;;;;;22.63;20.30;;;0.40;99.40;;;;;;10494547;28;20208;-78
2021/12/22 01:43:18;;;;;;;22.00;19.97;;;0.40;99.60;;;;;;10494431;28;20192;-76
2021/12/22 01:54:03;;;;;;;19.87;18.03;;;0.50;99.90;;;;;;10495122;28;20295;-78
2021/12/22 01:59:09;;;;;;;23.10;20.90;;;0.60;99.80;;;;;;10491465;28;20255;-77
2021/12/22 02:04:12;;;;;;;22.93;20.60;;;0.60;99.30;;;;;;10489349;28;20560;-77
2021/12/22 02:09:23;;;;;;;21.23;19.07;;;0.70;99.40;;;;;;10493540;28;20208;-77
2021/12/22 02:14:26;;;;;;;21.97;19.77;;;0.70;98.60;;;;;;10493886;28;20212;-78
2021/12/22 02:19:28;;;;;;;23.20;20.90;;;0.60;99.00;;;;;;10493169;28;20234;-79
2021/12/22 02:24:32;;;;;;;23.67;21.17;;;0.60;99.10;;;;;;10493973;28;20243;-78
2021/12/22 02:29:39;;;;;;;22.57;20.33;;;0.60;99.30;;;;;;10494523;28;20204;-79
2021/12/22 02:34:44;;;;;;;21.33;19.33;;;0.50;98.80;;;;;;10494118;28;20737;-77
2021/12/22 02:39:51;;;;;;;23.73;21.27;;;0.50;98.70;;;;;;10494182;28;20232;-78
2021/12/22 02:44:53;;;;;;;18.80;16.57;;;0.50;98.80;;;;;;10493144;28;20262;-79
2021/12/22 02:49:55;;;;;;;22.50;19.90;;;0.40;98.40;;;;;;10493429;28;20603;-79
2021/12/22 02:54:59;;;;;;;24.67;22.17;;;0.30;99.10;;;;;;10493213;28;20859;-76
2021/12/22 03:00:26;;;;;;;23.43;20.90;;;0.30;98.90;;;;;;10492530;28;20881;-78
2021/12/22 03:05:29;;;;;;;22.40;20.20;;;0.20;98.90;;;;;;10492462;28;20193;-77
2021/12/22 03:10:33;;;;;;;22.50;20.20;;;0.20;99.10;;;;;;10492902;28;20213;-77
2021/12/22 03:15:35;;;;;;;24.40;21.83;;;0.30;99.20;;;;;;10493116;28;20219;-77
2021/12/22 03:20:37;;;;;;;22.10;20.00;;;0.30;99.40;;;;;;10491716;28;20243;-77
2021/12/22 03:25:40;;;;;;;22.40;20.10;;;0.30;98.60;;;;;;10491731;28;20196;-77
2021/12/22 03:30:43;;;;;;;23.23;20.90;;;0.30;98.60;;;;;;10476264;28;20203;-77
2021/12/22 03:35:45;;;;;;;24.23;21.77;;;0.30;99.00;;;;;;10499848;28;20240;-78
2021/12/22 03:40:48;;;;;;;23.70;21.40;;;0.30;98.70;;;;;;10499977;28;20192;-77
2021/12/22 03:45:51;;;;;;;22.10;19.97;;;0.30;98.50;;;;;;10500123;28;20188;-77
2021/12/22 03:50:54;;;;;;;21.77;19.67;;;0.20;99.00;;;;;;10499715;28;20199;-77
2021/12/22 03:55:57;;;;;;;22.70;20.30;;;0.20;98.90;;;;;;10501412;28;20244;-79
2021/12/22 04:01:00;;;;;;;23.07;20.67;;;0.20;98.60;;;;;;10507311;28;20193;-78
2021/12/22 04:06:02;;;;;;;22.70;20.37;;;0.20;98.20;;;;;;10507771;28;20645;-77
2021/12/22 04:11:06;;;;;;;23.43;21.23;;;0.20;98.60;;;;;;10505865;28;20259;-80
2021/12/22 04:16:08;;;;;;;22.17;19.90;;;0.20;98.90;;;;;;10504241;28;20234;-80
2021/12/22 04:21:10;;;;;;;22.50;20.30;;;0.20;98.00;;;;;;10505656;28;20195;-78
2021/12/22 04:26:15;;;;;;;24.00;21.70;;;0.10;98.00;;;;;;10506754;28;20219;-78
2021/12/22 04:31:17;;;;;;;21.93;19.77;;;0.10;97.90;;;;;;10506636;28;20224;-80
2021/12/22 04:36:19;;;;;;;23.17;20.83;;;0.00;97.60;;;;;;10508278;28;20307;-79
2021/12/22 04:41:23;;;;;;;22.50;19.63;;;-0.10;98.40;;;;;;10506595;28;20224;-78
2021/12/22 04:46:25;;;;;;;23.47;21.00;;;-0.10;98.50;;;;;;10507283;28;20200;-79
2021/12/22 04:51:29;;;;;;;23.73;21.50;;;-0.10;99.20;;;;;;10511330;28;20248;-79
2021/12/22 04:56:33;;;;;;;24.13;21.73;;;0.00;98.40;;;;;;10513701;28;20219;-78
2021/12/22 05:01:35;;;;;;;23.50;21.10;;;-0.10;98.50;;;;;;10506262;28;20223;-78
2021/12/22 05:06:37;;;;;;;23.40;21.10;;;0.00;98.60;;;;;;10503205;28;20689;-77
2021/12/22 05:11:41;;;;;;;23.53;21.20;;;0.00;98.40;;;;;;10502581;28;20200;-81
2021/12/22 05:16:46;;;;;;;22.10;19.73;;;0.00;98.20;;;;;;10502828;28;20225;-80
2021/12/22 05:21:48;;;;;;;23.50;21.30;;;0.00;98.60;;;;;;10503088;28;20212;-80
2021/12/22 05:26:51;;;;;;;22.97;20.73;;;0.00;98.70;;;;;;10502855;28;20572;-78
2021/12/22 05:31:55;;;;;;;25.47;22.87;;;0.00;98.20;;;;;;10503465;28;20203;-77
2021/12/22 05:36:57;;;;;;;24.40;21.90;;;0.00;98.10;;;;;;10485699;28;20223;-79
2021/12/22 05:42:01;;;;;;;24.73;22.17;;;0.00;98.40;;;;;;10501501;28;20192;-77
2021/12/22 05:47:04;;;;;;;24.63;22.03;;;0.00;98.40;;;;;;10503445;28;20217;-78
2021/12/22 05:52:06;;;;;;;23.77;21.23;;;0.00;97.90;;;;;;10503468;28;20196;-78
2021/12/22 05:57:10;;;;;;;24.40;21.80;;;0.00;98.30;;;;;;10500642;28;20235;-80
2021/12/22 06:02:12;;;;;;;24.97;22.33;;;0.00;97.40;;;;;;10503518;28;20188;-80
2021/12/22 06:07:14;;;;;;;24.17;21.60;;;0.00;97.90;;;;;;10501970;28;20644;-80
2021/12/22 06:12:17;;;;;;;23.70;21.30;;;-0.10;97.30;;;;;;10499503;28;20665;-80
2021/12/22 06:17:19;;;;;;;25.97;23.17;;;-0.20;97.40;;;;;;10481990;28;20220;-78
2021/12/22 06:22:22;;;;;;;26.00;23.30;;;-0.20;97.80;;;;;;10499154;28;20197;-78
2021/12/22 06:27:25;;;;;;;26.67;23.87;;;-0.20;97.90;;;;;;10500083;28;20215;-78
2021/12/22 06:32:27;;;;;;;25.20;22.80;;;-0.30;97.90;;;;;;10500274;28;20195;-79
2021/12/22 06:37:29;;;;;;;24.37;21.90;;;-0.30;97.20;;;;;;10484615;28;20751;-78
2021/12/22 06:42:33;;;;;;;26.10;23.50;;;-0.30;97.60;;;;;;10483066;28;20233;-79
2021/12/22 06:47:35;;;;;;;26.47;23.80;;;-0.30;97.70;;;;;;10499872;28;20204;-79
2021/12/22 06:52:37;;;;;;;25.70;23.03;;;-0.30;97.70;;;;;;10481339;28;20206;-80
2021/12/22 06:57:41;;;;;;;25.87;23.17;;;-0.30;97.70;;;;;;10499530;28;20270;-79
2021/12/22 07:02:43;;;;;;;28.93;25.93;;;-0.30;97.90;;;;;;10500544;28;20278;-79
2021/12/22 07:07:54;;;;;;;28.33;25.53;;;-0.30;97.80;;;;;;10506310;28;20257;-78
2021/12/22 07:12:58;;;;;;;26.23;23.43;;;-0.30;97.70;;;;;;10490064;28;20199;-79
2021/12/22 07:18:01;;;;;;;25.93;23.23;;;-0.30;97.00;;;;;;10490532;28;20250;-80
2021/12/22 07:23:04;;;;;;;25.37;22.83;;;-0.30;96.90;;;;;;10507857;28;20238;-79
2021/12/22 07:28:08;;;;;;;26.07;23.37;;;-0.40;96.90;;;;;;10506668;28;20211;-78
2021/12/22 07:33:11;;;;;;;26.17;23.53;;;-0.50;97.60;;;;;;10487784;28;20197;-79
2021/12/22 07:38:27;;;;;;;26.03;23.33;;;-0.50;98.40;;;;;;10507321;28;20226;-77
2021/12/22 07:43:31;;;;;;;26.07;23.27;;;-0.40;98.40;;;;;;10489101;28;20208;-79
2021/12/22 07:48:33;;;;;;;23.33;20.93;;;-0.30;97.90;;;;;;10505253;28;20228;-78
2021/12/22 07:53:36;;;;;;;23.97;21.40;;;-0.30;97.30;;;;;;10508381;28;20654;-78
2021/12/22 07:58:39;;;;;;;24.33;22.03;;;-0.30;97.60;;;;;;10504911;28;20228;-79
2021/12/22 08:03:41;;;;;;;24.20;21.80;;;-0.20;97.90;;;;;;10507754;28;20188;-79
2021/12/22 08:08:44;;;;;;;25.70;23.10;;;-0.20;97.60;;;;;;10505748;28;20616;-79
2021/12/22 08:13:47;;;;;;;25.83;23.23;;;-0.20;98.10;;;;;;10508511;28;20195;-79
2021/12/22 08:18:49;;;;;;;24.70;22.07;;;-0.20;98.00;;;;;;10506053;28;20227;-79
2021/12/22 08:23:51;;;;;;;27.00;24.10;;;-0.10;98.20;;;;;;10505866;28;20272;-79
2021/12/22 08:28:55;;;;;;;27.07;24.20;;;-0.10;97.50;;;;;;10506938;28;20216;-79
2021/12/22 08:33:57;;;;;;;27.30;24.70;;;-0.10;97.50;;;;;;10506717;28;20219;-79
2021/12/22 08:39:04;;;;;;;26.57;23.80;;;-0.20;98.20;;;;;;10507004;28;20220;-80
2021/12/22 08:44:11;;;;;;;25.57;22.83;;;-0.10;98.00;;;;;;10507619;28;20193;-79
2021/12/22 08:49:13;;;;;;;25.50;22.90;;;0.00;98.00;;;;;;10506388;28;20298;-79
2021/12/22 08:54:15;;;;;;;25.37;22.93;;;0.00;97.80;;;;;;10506116;28;20652;-78
2021/12/22 08:59:18;;;;;;;27.80;24.90;;;0.10;98.30;;;;;;10489435;28;20283;-79
2021/12/22 09:04:21;;;;;;;23.93;21.73;;;0.20;98.50;;;;;;10491417;28;20200;-78
2021/12/22 09:09:23;;;;;;;26.60;23.80;;;0.30;97.50;;;;;;10504510;28;20208;-78
2021/12/22 09:14:27;;;;;;;30.17;25.30;;;0.40;98.30;;;;;;10504693;28;20193;-79
2021/12/22 09:19:30;;;;;;;28.23;25.20;;;0.50;99.10;;;;;;10487188;28;20213;-79
2021/12/22 09:24:32;;;;;;;26.37;23.53;;;0.60;99.30;;;;;;10504888;28;20667;-80
2021/12/22 09:29:36;;;;;;;28.70;25.67;;;0.70;98.70;;;;;;10502997;28;20221;-78
2021/12/22 09:34:39;;;;;;;27.77;24.63;;;0.90;98.90;;;;;;10502060;28;20208;-79
2021/12/22 09:39:41;;;;;;;28.70;25.63;;;1.00;97.40;;;;;;10501450;28;20209;-79
2021/12/22 09:44:46;;;;;;;28.30;25.37;;;1.00;98.60;;;;;;10500461;28;20538;-80
2021/12/22 09:50:06;;;;;;;30.73;25.40;;;1.10;99.20;;;;;;10483404;28;20212;-80
2021/12/22 09:55:10;;;;;;;25.97;23.27;;;1.20;99.10;;;;;;10499587;28;20274;-79
2021/12/22 10:00:14;;;;;;;28.00;24.20;;;1.30;99.20;;;;;;10499516;28;20220;-79
2021/12/22 10:05:19;;;;;;;26.47;23.67;;;1.40;99.10;;;;;;10500831;28;20200;-79
2021/12/22 10:10:26;;;;;;;26.07;23.40;;;1.60;99.10;;;;;;10499874;28;20311;-79
2021/12/22 10:15:33;;;;;;;25.97;23.33;;;1.60;98.40;;;;;;10499791;28;20224;-80
2021/12/22 10:20:35;;;;;;;23.70;21.40;;;1.80;98.60;;;;;;10499882;28;20279;-79
2021/12/22 10:25:40;;;;;;;23.53;21.23;;;1.90;97.90;;;;;;10499303;28;20207;-80
2021/12/22 10:30:44;;;;;;;22.70;20.50;;;1.90;98.40;;;;;;10498929;28;20184;-79
2021/12/22 10:35:49;;;;;;;23.80;21.40;;;2.10;98.40;;;;;;10500622;28;20607;-79
2021/12/22 10:40:53;;;;;;;23.83;21.43;;;2.10;96.90;;;;;;10502184;28;20200;-80
2021/12/22 10:45:59;;;;;;;25.07;22.50;;;2.10;97.80;;;;;;10503537;28;20205;-79
2021/12/22 10:51:02;;;;;;;24.40;21.90;;;2.30;98.30;;;;;;10507824;28;20192;-80
2021/12/22 10:56:04;;;;;;;25.50;21.50;;;2.30;98.20;;;;;;10506757;28;20311;-79
2021/12/22 11:01:13;;;;;;;22.30;20.10;;;2.30;98.30;;;;;;10508028;28;20193;-80
2021/12/22 11:06:20;;;;;;;21.90;19.60;;;2.40;98.10;;;;;;10507864;28;20242;-80
2021/12/22 11:11:22;;;;;;;22.10;19.90;;;2.40;96.80;;;;;;10490373;28;20196;-80
2021/12/22 11:16:26;;;;;;;22.80;20.50;;;2.50;96.40;;;;;;10507090;28;20300;-80
2021/12/22 11:21:31;;;;;;;22.10;19.90;;;2.50;96.00;;;;;;10506767;28;20200;-79
2021/12/22 11:26:33;;;;;;;22.13;19.93;;;2.50;97.20;;;;;;10507170;28;20693;-80
2021/12/22 11:31:37;;;;;;;23.90;21.30;;;2.60;97.40;;;;;;10505586;28;20206;-80
2021/12/22 11:36:40;;;;;;;23.33;20.90;;;2.60;96.70;;;;;;10508123;28;20216;-80
2021/12/22 11:41:54;;;;;;;25.60;22.97;;;2.70;96.90;;;;;;10507962;28;20195;-80
2021/12/22 11:47:00;;;;;;;23.80;21.40;;;2.80;97.50;;;;;;10506861;28;20204;-80
2021/12/22 11:52:03;;;;;;;23.80;21.37;;;2.80;97.00;;;;;;10507806;28;20219;-79
2021/12/22 11:57:18;;;;;;;22.33;20.13;;;2.90;97.70;;;;;;10512573;28;20244;-79
2021/12/22 12:02:23;;;;;;;22.57;20.17;;;2.90;96.90;;;;;;10508409;28;20235;-79
2021/12/22 12:07:47;;;;;;;23.47;21.03;;;3.00;96.90;;;;;;10508477;28;20200;-79
2021/12/22 12:12:50;;;;;;;23.40;20.90;;;3.10;97.00;;;;;;10509472;28;20208;-79
2021/12/22 12:23:30;;;;;;;22.43;20.30;;;3.10;96.70;;;;;;10495250;28;20212;-79
2021/12/22 12:28:45;;;;;;;25.57;23.03;;;3.20;96.40;;;;;;10519181;28;20609;-79
2021/12/22 12:33:50;;;;;;;24.17;21.77;;;3.20;96.80;;;;;;10510385;28;20274;-79
2021/12/22 12:38:55;;;;;;;23.10;20.80;;;3.30;96.70;;;;;;10509185;28;20459;-79
2021/12/22 12:44:27;;;;;;;22.43;20.23;;;3.30;95.90;;;;;;10491333;28;20199;-79
2021/12/22 12:49:48;;;;;;;21.93;19.83;;;3.30;96.50;;;;;;10505155;28;20687;-79
2021/12/22 12:54:54;;;;;;;22.10;20.00;;;3.40;95.70;;;;;;10511251;28;20200;-80
2021/12/22 13:00:03;;;;;;;23.13;20.90;;;3.40;95.90;;;;;;10493536;28;20290;-79
2021/12/22 13:05:11;;;;;;;24.83;22.30;;;3.40;96.00;;;;;;10497846;28;20250;-79
2021/12/22 13:10:23;;;;;;;24.33;21.87;;;3.40;96.70;;;;;;10513340;28;20217;-78
2021/12/22 13:20:44;;;;;;;24.07;21.67;;;3.40;96.20;;;;;;10504788;28;20194;-79
2021/12/22 13:25:48;;;;;;;23.33;20.70;;;3.50;96.90;;;;;;10510027;28;20252;-79
2021/12/22 13:30:55;;;;;;;23.77;21.17;;;3.50;96.70;;;;;;10508204;28;20227;-79
2021/12/22 13:36:00;;;;;;;24.70;22.10;;;3.50;96.60;;;;;;10507605;28;20244;-79
2021/12/22 13:41:04;;;;;;;23.27;20.97;;;3.60;96.40;;;;;;10490197;28;20199;-79
2021/12/22 13:46:30;;;;;;;23.13;20.50;;;3.60;96.50;;;;;;10506424;28;20235;-79
2021/12/22 13:51:40;;;;;;;22.73;20.60;;;3.70;95.50;;;;;;10501855;28;20661;-79
2021/12/22 13:56:44;;;;;;;23.80;21.40;;;3.70;96.40;;;;;;10516575;28;20700;-78
2021/12/22 14:01:47;;;;;;;24.77;22.30;;;3.70;97.20;;;;;;10513356;28;20207;-79
2021/12/22 14:06:52;;;;;;;23.23;20.83;;;3.70;97.30;;;;;;10500016;28;20204;-78
2021/12/22 14:11:59;;;;;;;25.60;21.83;;;3.80;96.40;;;;;;10499464;28;20541;-79
2021/12/22 14:17:17;;;;;;;22.00;19.80;;;3.80;96.50;;;;;;10498148;28;20220;-78
2021/12/22 14:22:22;;;;;;;22.13;19.93;;;3.80;95.80;;;;;;10482623;28;20265;-79
2021/12/22 14:27:33;;;;;;;22.57;20.23;;;3.80;95.30;;;;;;10497811;28;20220;-79
2021/12/22 14:32:37;;;;;;;22.07;19.87;;;3.80;95.50;;;;;;10499229;28;20193;-79
2021/12/22 14:37:42;;;;;;;23.90;21.37;;;3.80;95.80;;;;;;10498535;28;20298;-78
2021/12/22 14:42:59;;;;;;;21.63;19.40;;;3.80;95.30;;;;;;10481537;28;20564;-77
2021/12/22 14:48:16;;;;;;;22.20;19.83;;;3.70;96.00;;;;;;10500535;28;20208;-79
2021/12/22 14:53:29;;;;;;;23.30;21.00;;;3.70;96.00;;;;;;10500962;28;20695;-78
2021/12/22 14:58:31;;;;;;;21.60;19.30;;;3.70;96.30;;;;;;10497714;28;20295;-77
2021/12/22 15:03:34;;;;;;;24.23;21.60;;;3.70;96.60;;;;;;10500667;28;20220;-78
2021/12/22 15:08:38;;;;;;;21.57;19.40;;;3.60;96.50;;;;;;10480924;28;20215;-78
2021/12/22 15:13:41;;;;;;;24.30;21.60;;;3.50;96.10;;;;;;10497803;28;20244;-77
2021/12/22 15:18:44;;;;;;;22.47;20.20;;;3.40;96.70;;;;;;10497359;28;20225;-77
2021/12/22 15:23:48;;;;;;;22.53;20.17;;;3.30;96.60;;;;;;10480005;28;20192;-78
2021/12/22 15:28:53;;;;;;;24.33;21.83;;;3.20;96.90;;;;;;10487287;28;20220;-78
2021/12/22 15:33:56;;;;;;;24.90;22.40;;;3.20;96.90;;;;;;10504904;28;20202;-78
2021/12/22 15:38:59;;;;;;;24.10;21.70;;;3.10;97.00;;;;;;10486675;28;20315;-77
2021/12/22 15:44:01;;;;;;;24.67;22.07;;;3.00;96.90;;;;;;10504423;28;20264;-77
2021/12/22 15:49:04;;;;;;;24.70;21.97;;;3.00;96.60;;;;;;10486345;28;20646;-78
2021/12/22 15:54:07;;;;;;;23.97;21.37;;;2.90;97.00;;;;;;10504456;28;20203;-77
2021/12/22 15:59:09;;;;;;;24.13;21.63;;;2.90;97.20;;;;;;10501990;28;20752;-77
2021/12/22 16:04:11;;;;;;;25.57;22.90;;;2.80;96.90;;;;;;10503428;28;20196;-77
2021/12/22 16:09:15;;;;;;;40.20;29.67;;;2.80;96.50;;;;;;10503138;28;20236;-77
2021/12/22 16:14:17;;;;;;;26.50;23.70;;;2.70;96.50;;;;;;10485319;28;20197;-77
2021/12/22 16:19:19;;;;;;;25.70;23.00;;;2.70;96.80;;;;;;10485634;28;20220;-78
2021/12/22 16:24:23;;;;;;;20.80;17.27;;;2.60;96.50;;;;;;10502333;28;20197;-77
2021/12/22 16:29:25;;;;;;;25.70;22.97;;;2.50;96.40;;;;;;10503123;28;20235;-80
2021/12/22 16:34:27;;;;;;;29.20;25.03;;;2.40;96.00;;;;;;10503739;28;20200;-79
2021/12/22 16:39:31;;;;;;;29.53;25.43;;;2.30;96.80;;;;;;10502882;28;20596;-79
2021/12/22 16:44:34;;;;;;;31.67;27.07;;;2.20;96.70;;;;;;10502796;28;20243;-79
2021/12/22 16:49:36;;;;;;;33.80;28.77;;;2.10;96.70;;;;;;10500866;28;20219;-80
2021/12/22 16:54:44;;;;;;;26.90;22.80;;;2.00;97.80;;;;;;10501005;28;20188;-79
2021/12/22 16:59:46;;;;;;;31.63;27.30;;;2.00;97.00;;;;;;10483152;28;20735;-79
2021/12/22 17:04:48;;;;;;;33.33;29.13;;;2.00;97.10;;;;;;10502029;28;20742;-79
2021/12/22 17:09:52;;;;;;;33.17;29.63;;;1.90;97.30;;;;;;10500616;28;20491;-79
2021/12/22 17:14:54;;;;;;;34.23;29.83;;;1.90;97.10;;;;;;10499709;28;20197;-79
2021/12/22 17:19:56;;;;;;;32.43;29.03;;;1.90;97.30;;;;;;10500587;28;20243;-79
2021/12/22 17:25:00;;;;;;;33.13;29.53;;;1.80;97.10;;;;;;10499554;28;20188;-79
2021/12/22 17:30:03;;;;;;;32.93;29.33;;;1.80;97.30;;;;;;10500094;28;20209;-78
2021/12/22 17:35:08;;;;;;;35.03;29.17;;;1.80;97.40;;;;;;10500171;28;20247;-80
2021/12/22 17:40:15;;;;;;;33.20;28.90;;;1.70;97.30;;;;;;10500608;28;20657;-79
2021/12/22 17:45:19;;;;;;;34.83;30.97;;;1.80;98.00;;;;;;10499518;28;20228;-80
2021/12/22 17:50:23;;;;;;;34.53;29.37;;;1.80;98.70;;;;;;10498849;28;20258;-80
2021/12/22 17:55:27;;;;;;;37.53;32.10;;;1.80;98.60;;;;;;10500822;28;20206;-80
2021/12/22 18:00:29;;;;;;;35.90;31.73;;;1.90;99.00;;;;;;10500294;28;20304;-78
2021/12/22 18:05:39;;;;;;;36.53;30.63;;;1.90;98.30;;;;;;10501975;28;20684;-80
2021/12/22 18:10:43;;;;;;;35.10;29.87;;;2.00;98.80;;;;;;10501266;28;20250;-79
2021/12/22 18:15:45;;;;;;;32.20;28.70;;;2.00;98.60;;;;;;10503108;28;20192;-79
2021/12/22 18:20:50;;;;;;;35.50;31.27;;;2.00;98.10;;;;;;10502818;28;20302;-80
2021/12/22 18:25:54;;;;;;;36.73;31.87;;;2.00;98.00;;;;;;10501662;28;20197;-79
2021/12/22 18:30:56;;;;;;;34.67;30.97;;;2.00;98.00;;;;;;10503855;28;20626;-79
2021/12/22 18:36:01;;;;;;;35.53;30.40;;;2.00;97.50;;;;;;10503315;28;20236;-80
2021/12/22 18:41:13;;;;;;;36.80;32.20;;;1.90;97.90;;;;;;10503110;28;20193;-79
2021/12/22 18:46:15;;;;;;;35.03;30.53;;;1.90;96.90;;;;;;10502800;28;20225;-79
2021/12/22 18:51:18;;;;;;;34.00;29.90;;;1.90;97.30;;;;;;10492026;28;20192;-79
2021/12/22 18:56:22;;;;;;;33.03;29.53;;;1.80;96.40;;;;;;10505953;28;20235;-80
2021/12/22 19:01:26;;;;;;;34.93;31.10;;;1.70;97.00;;;;;;10505814;28;20200;-79
2021/12/22 19:06:29;;;;;;;35.50;31.00;;;1.60;97.60;;;;;;10504615;28;20208;-79
2021/12/22 19:11:32;;;;;;;36.10;30.73;;;1.60;96.90;;;;;;10505653;28;20669;-78
2021/12/22 19:16:35;;;;;;;39.20;33.13;;;1.50;97.00;;;;;;10504223;28;20213;-79
2021/12/22 19:21:37;;;;;;;38.40;32.80;;;1.40;97.50;;;;;;10502745;28;20211;-79
2021/12/22 19:26:40;;;;;;;36.43;31.97;;;1.30;96.90;;;;;;10486192;28;20586;-79
2021/12/22 19:31:42;;;;;;;36.27;32.37;;;1.10;97.00;;;;;;10504695;28;20193;-77
2021/12/22 19:36:45;;;;;;;35.60;31.80;;;1.10;97.20;;;;;;10503359;28;20219;-78
2021/12/22 19:41:48;;;;;;;38.53;32.63;;;1.00;96.70;;;;;;10486512;28;20224;-78
2021/12/22 19:46:50;;;;;;;33.97;29.93;;;1.00;97.10;;;;;;10503086;28;20223;-79
2021/12/22 19:51:55;;;;;;;37.83;32.70;;;0.90;96.50;;;;;;10504775;28;20653;-79
2021/12/22 19:56:58;;;;;;;37.63;31.97;;;0.80;96.60;;;;;;10505496;28;20243;-79
2021/12/22 20:02:00;;;;;;;37.90;33.77;;;0.70;96.70;;;;;;10503689;28;20201;-78
2021/12/22 20:07:03;;;;;;;37.27;32.20;;;0.60;97.20;;;;;;10504025;28;20260;-79
2021/12/22 20:12:07;;;;;;;37.93;31.87;;;0.60;97.70;;;;;;10503623;28;20220;-78
2021/12/22 20:17:09;;;;;;;43.13;35.17;;;0.60;97.10;;;;;;10485845;28;20240;-79
2021/12/22 20:22:11;;;;;;;36.73;32.77;;;0.50;96.80;;;;;;10503933;28;20763;-78
2021/12/22 20:27:15;;;;;;;37.50;32.77;;;0.50;97.10;;;;;;10505188;28;20215;-79
2021/12/22 20:32:17;;;;;;;35.80;31.47;;;0.40;97.30;;;;;;10486729;28;20235;-79
2021/12/22 20:37:19;;;;;;;40.87;31.07;;;0.40;97.50;;;;;;10503719;28;20216;-79
2021/12/22 20:42:23;;;;;;;37.20;30.50;;;0.40;97.30;;;;;;10505106;28;20579;-78
2021/12/22 20:47:25;;;;;;;38.47;33.60;;;0.40;96.70;;;;;;10505156;28;20212;-78
2021/12/22 20:52:27;;;;;;;36.67;30.70;;;0.30;96.50;;;;;;10505213;28;20679;-78
2021/12/22 20:57:31;;;;;;;36.13;32.10;;;0.20;96.60;;;;;;10503411;28;20225;-79
2021/12/22 21:02:33;;;;;;;36.30;31.57;;;0.10;96.60;;;;;;10503044;28;20185;-78
2021/12/22 21:07:36;;;;;;;38.30;32.13;;;0.10;96.50;;;;;;10504242;28;20222;-77
2021/12/22 21:12:42;;;;;;;38.90;32.70;;;0.00;96.50;;;;;;10505549;28;20603;-78
2021/12/22 21:17:44;;;;;;;38.60;32.63;;;-0.10;96.80;;;;;;10484760;28;20216;-78
2021/12/22 21:22:48;;;;;;;36.33;31.33;;;-0.10;97.10;;;;;;10486802;28;20226;-80
2021/12/22 21:27:53;;;;;;;34.97;31.17;;;-0.10;97.30;;;;;;10487215;28;20213;-80
2021/12/22 21:32:56;;;;;;;33.10;29.50;;;-0.10;96.60;;;;;;10504146;28;20211;-79
2021/12/22 21:37:58;;;;;;;36.63;30.27;;;-0.20;96.70;;;;;;10505398;28;20236;-78
2021/12/22 21:43:01;;;;;;;35.10;29.97;;;-0.20;96.60;;;;;;10513518;28;20216;-79
2021/12/22 21:48:04;;;;;;;39.00;32.93;;;-0.20;97.20;;;;;;10486274;28;20295;-80
2021/12/22 21:53:06;;;;;;;36.07;31.47;;;-0.20;96.50;;;;;;10503396;28;20290;-79
2021/12/22 21:58:10;;;;;;;40.87;34.27;;;-0.30;96.40;;;;;;10485018;28;20673;-79
2021/12/22 22:03:12;;;;;;;43.33;34.17;;;-0.30;97.20;;;;;;10503753;28;20228;-79
2021/12/22 22:08:14;;;;;;;41.40;34.17;;;-0.30;97.30;;;;;;10488093;28;20228;-80
2021/12/22 22:13:19;;;;;;;37.03;31.70;;;-0.20;97.80;;;;;;10514359;28;20256;-79
2021/12/22 22:18:21;;;;;;;37.37;31.37;;;-0.10;97.80;;;;;;10500019;28;20715;-77
2021/12/22 22:23:23;;;;;;;39.30;32.93;;;-0.10;97.00;;;;;;10501372;28;20696;-78
2021/12/22 22:28:26;;;;;;;40.37;33.10;;;0.00;97.00;;;;;;10497995;28;20274;-77
2021/12/22 22:33:29;;;;;;;51.27;39.07;;;0.00;96.90;;;;;;10500432;28;20196;-81
2021/12/22 22:38:31;;;;;;;45.07;32.87;;;-0.10;97.30;;;;;;10505103;28;20224;-79
2021/12/22 22:43:34;;;;;;;42.23;35.67;;;-0.10;98.00;;;;;;10491036;28;20208;-79
2021/12/22 22:48:36;;;;;;;41.67;34.07;;;-0.10;98.50;;;;;;10509835;28;20208;-79
2021/12/22 22:53:38;;;;;;;42.87;35.10;;;0.10;98.50;;;;;;10508679;28;20562;-79
2021/12/22 22:58:42;;;;;;;42.63;33.97;;;0.30;99.00;;;;;;10507097;28;20294;-80
2021/12/22 23:03:44;;;;;;;43.07;34.30;;;0.40;99.00;;;;;;10508535;28;20661;-78
2021/12/22 23:08:46;;;;;;;44.33;34.23;;;0.50;98.70;;;;;;10506426;28;20696;-77
2021/12/22 23:13:49;;;;;;;45.03;34.67;;;0.70;98.80;;;;;;10509214;28;20192;-78
2021/12/22 23:18:52;;;;;;;44.57;35.40;;;0.80;99.00;;;;;;10490429;28;20263;-79
2021/12/22 23:23:54;;;;;;;41.17;34.20;;;0.90;98.80;;;;;;10507753;28;20189;-79
2021/12/22 23:28:58;;;;;;;41.20;33.10;;;1.00;98.90;;;;;;10504566;28;20215;-79
2021/12/22 23:34:00;;;;;;;41.30;34.80;;;1.10;98.80;;;;;;10506078;28;20203;-79
2021/12/22 23:39:18;;;;;;;43.17;34.77;;;1.10;98.10;;;;;;10506777;28;20212;-79
2021/12/22 23:49:41;;;;;;;42.43;35.57;;;1.10;98.20;;;;;;10487779;28;20590;-78
2021/12/22 23:54:45;;;;;;;38.53;32.40;;;1.20;98.20;;;;;;10507602;28;20200;-79
2021/12/22 23:59:48;;;;;;;42.67;33.80;;;1.20;98.30;;;;;;10507317;28;20228;-77
